Alpha, Idaho
Current Conditions -  °F | °C
As of 10:51 AM on Friday 31 Oct 2014 (Local Time) from KMYL Reporting Station
Clear Clear  
Wind Chill: 45°   Ceiling: Unl
Heat Index: 45°   Visibility: 10mi
Dew Point: 36°   Wind: 3mph
Humidity: 71%   Direction: NA
Pressure: 29.86"   Gusts: NA
Location:  44.4236°N, 115.8°W
Report Text: KMYL 311651Z AUTO VRB03KT 10SM CLR 07/02 A2986 RMK AO2 SLP106 T00720022
Loading
Personal Weather Stations






























Interactive Weather Map
Tropical Storm Tracking
New forecast layout! Learn more

10-Day Weather Forecast

Advertisements
Track Severe Weather on mobile